SCBA/BBA METAR and TAF weather

Enter ICAO airport designator
Station Type Date Time Source
SCBA METAR 2019/02/15 22:00 UTC NOAA

SCBA 152200Z 31024KT 9999 FEW050 23/12 Q1012


Station Type Date Time Source
SCBA Decoded METAR 2019/02/15 22:00 UTC NOAA

Balmaceda, Chile (SCBA) 45-55S 071-41W 520M
Feb 15, 2019 - 05:00 PM EST / 2019.02.15 2200 UTC
Wind: from the NW (310 degrees) at 28 MPH (24 KT):0
Visibility: greater than 7 mile(s):0
Sky conditions: mostly clear
Temperature: 73 F (23 C)
Dew Point: 53 F (12 C)
Relative Humidity: 49%
Pressure (altimeter): 29.88 in. Hg (1012 hPa)
ob: SCBA 152200Z 31024KT 9999 FEW050 23/12 Q1012
cycle: 22

Station Type Date Time Source
SCBA TAF 2019/02/16 06:01 UTC NOAA

TAF SCBA 160412Z 1606/1706 31016KT CAVOK TN15/1610Z TX23/1620Z
BECMG 1613/1615 31026KT
TEMPO 1616/1621 31025G35KT
BECMG 1701/1703 31015KT


Example: see airport list